F/V Harvestor — WDC8229 — position and weather

sailwx.info

Track history (hours):
 
Tides and Currents Weather Stations Pressure Air Temp Water Temp Dewpoint Dewpoint Depression Visibility Wind Speed Wind Dir Waves Ship Positions

F/V Harvestor

Owner: F/V HARVESTOR INC., EDMONDS, WA. More information available from US FCC via Universal Licensing System and Coast Guard Vessel Documentation Center.

Last reported at 2015-May-03 11:34 UTC. Time now 2015-May-03 11:50 UTC.
Position N 47°38' W 122°23'.

Length 40 m.

Type: Fishing. MMSI: 367083650.

Date/timePositionNaut miles runAvg speedWind from/ knotsBaromVisibWave heightAir tempDewpointWater temp
2015-May-03 11:34N 47°38' W 122°23'0 0.0
2015-May-03 11:33N 47°38' W 122°23'0 0.0
2015-May-03 10:34N 47°38' W 122°23'0 0.0
2015-May-03 10:32N 47°38' W 122°23'0 0.0
2015-May-03 09:34N 47°38' W 122°23'0 0.0
2015-May-03 09:32N 47°38' W 122°23'0 0.0
2015-May-03 08:34N 47°38' W 122°23'0 0.0
2015-May-03 08:31N 47°38' W 122°23'0 0.0
2015-May-03 07:34N 47°38' W 122°23'0 0.0
2015-May-03 07:31N 47°38' W 122°23'0 0.0
2015-May-03 06:51N 47°38' W 122°23'0 0.0
2015-May-03 06:34N 47°38' W 122°23'0 0.0
2015-May-03 05:34N 47°38' W 122°23'0 0.0
2015-May-03 05:30N 47°38' W 122°23'0 0.0
2015-May-03 04:33N 47°38' W 122°23'0 0.0
2015-May-03 04:30N 47°38' W 122°23'0 0.0
2015-May-03 03:33N 47°38' W 122°23'0 0.0
2015-May-03 03:30N 47°38' W 122°23'0 0.0
2015-May-03 02:34N 47°38' W 122°23'0 0.7
2015-May-03 02:30N 47°38' W 122°23'0 0.0
2015-May-03 01:34N 47°38' W 122°23'0 0.7
2015-May-03 01:30N 47°38' W 122°23'0 0.0
2015-May-03 00:33N 47°38' W 122°23'0 0.0
2015-May-03 00:30N 47°38' W 122°23'0 0.0
2015-May-02 23:34N 47°38' W 122°23'0 0.6
2015-May-02 23:29N 47°38' W 122°23'3 3.7
2015-May-02 22:34N 47°39' W 122°27'1 9.0
2015-May-02 22:29N 47°40' W 122°28'910.1
2015-May-02 21:33N 47°49' W 122°28'8 9.2
2015-May-02 20:40N 47°57' W 122°33'110.6
2015-May-02 20:33N 47°57' W 122°35'6 9.6
2015-May-02 19:55N 48°03' W 122°39'4 9.9
2015-May-02 19:32N 48°06' W 122°40'10 9.9
2015-May-02 18:29N 48°11' W 122°55'4 9.0
2015-May-02 18:03N 48°11' W 123°00'4 9.2
2015-May-02 17:34N 48°11' W 123°07'7 7.3
2015-May-02 16:33N 48°09' W 123°18'5 5.0
2015-May-02 15:33N 48°08' W 123°25'0 0.0
2015-May-02 15:07N 48°08' W 123°25'0 0.0
2015-May-02 14:33N 48°08' W 123°25'8 7.9
2015-May-02 13:34N 48°10' W 123°14'9 8.9
2015-May-02 12:33N 48°12' W 123°01'9 8.9
2015-May-02 11:32N 48°12' W 122°47'1 7.7
2015-May-02 11:25N 48°11' W 122°46'6 6.9
2015-May-02 10:32N 48°07' W 122°39'5 7.2
2015-May-02 09:54N 48°03' W 122°38'2 6.5
2015-May-02 09:34N 48°01' W 122°36'2 6.7
2015-May-02 09:19N 47°59' W 122°35'5 6.8
2015-May-02 08:34N 47°56' W 122°29'1 7.3
2015-May-02 08:24N 47°55' W 122°28'6 7.4
2015-May-02 07:34N 47°49' W 122°26'3 7.7
2015-May-02 07:12N 47°46' W 122°25'5 7.9
2015-May-02 06:33N 47°41' W 122°27'3 7.7
2015-May-02 06:10N 47°38' W 122°27'5 7.9
2015-May-02 05:34N 47°33' W 122°27'1 8.0
2015-May-02 05:29N 47°33' W 122°28'8 8.9
2015-May-02 04:34N 47°25' W 122°32'9 9.4
2015-May-02 03:34N 47°15' W 122°34'9 8.5
2015-May-02 02:28N 47°10' W 122°45'7 7.3
2015-May-02 01:28N 47°08' W 122°55'4 0.8
2015-May-01 21:09N 47°04' W 122°55'0 0.0
2015-May-01 13:20N 47°04' W 122°55'0 0.0
2015-May-01 12:23N 47°04' W 122°55'0 0.0
2015-May-01 08:33N 47°04' W 122°55'5 0.9
2015-May-01 03:22N 47°09' W 122°54'7 7.3
2015-May-01 02:23N 47°11' W 122°44'6 7.8
2015-May-01 01:34N 47°14' W 122°35'7 7.0
2015-May-01 00:33N 47°20' W 122°33'6 8.2
2015-Apr-30 23:51N 47°26' W 122°32'3 8.7
2015-Apr-30 23:34N 47°29' W 122°31'0 8.4
2015-Apr-30 23:31N 47°29' W 122°30'8 8.6
2015-Apr-30 22:34N 47°37' W 122°28'0 8.9
2015-Apr-30 22:31N 47°37' W 122°29'8 8.4
2015-Apr-30 21:34N 47°45' W 122°28'0 8.5
2015-Apr-30 21:30N 47°46' W 122°28'5 4.9
2015-Apr-30 20:34N 47°50' W 122°29'1 8.7
2015-Apr-30 20:29N 47°51' W 122°29'8 8.8
2015-Apr-30 19:33N 47°58' W 122°35'10 9.0
2015-Apr-30 18:26N 48°07' W 122°42'10 9.3
2015-Apr-30 17:22N 48°11' W 122°55'7 8.8
2015-Apr-30 16:34N 48°12' W 123°06'5 8.3
2015-Apr-30 15:56N 48°10' W 123°13'3 7.1
2015-Apr-30 15:34N 48°09' W 123°17'5 5.2
2015-Apr-30 14:34N 48°08' W 123°25'0 0.0
2015-Apr-30 13:30N 48°08' W 123°25'7 7.0
2015-Apr-30 12:33N 48°10' W 123°16'9 9.1
2015-Apr-30 11:34N 48°13' W 123°02'9 8.5
2015-Apr-30 10:32N 48°12' W 122°49'016.2
2015-Apr-30 10:32N 48°12' W 122°49'7 7.1
2015-Apr-30 09:29N 48°08' W 122°40'6 6.8
2015-Apr-30 08:32N 48°02' W 122°37'5 7.1
2015-Apr-30 07:46N 47°57' W 122°32'1 6.8
2015-Apr-30 07:33N 47°56' W 122°30'4 7.8
2015-Apr-30 07:06N 47°53' W 122°28'4 8.2
2015-Apr-30 06:33N 47°49' W 122°26'0 8.6
2015-Apr-30 06:31N 47°48' W 122°26'4 8.2
2015-Apr-30 06:01N 47°44' W 122°26'4 8.6
2015-Apr-30 05:33N 47°40' W 122°27'9 8.5
2015-Apr-30 04:34N 47°32' W 122°28'0 9.0
2015-Apr-30 04:30N 47°32' W 122°29'9 9.1
2015-Apr-30 03:33N 47°23' W 122°32'10 9.6
2015-Apr-30 02:34N 47°14' W 122°35'9 8.4
2015-Apr-30 01:31N 47°10' W 122°47'8 6.9
2015-Apr-30 00:23N 47°05' W 122°55'1 0.2
2015-Apr-29 20:07N 47°04' W 122°55'0 0.0
2015-Apr-29 17:30N 47°04' W 122°55'8 0.6
2015-Apr-29 03:28N 47°11' W 122°49'7 7.1
2015-Apr-29 02:31N 47°11' W 122°39'7 7.2
2015-Apr-29 01:33N 47°17' W 122°33'7 6.9
2015-Apr-29 00:34N 47°23' W 122°32'4 7.8
2015-Apr-29 00:00N 47°28' W 122°31'4 8.1
2015-Apr-28 23:34N 47°31' W 122°29'4 8.3
2015-Apr-28 23:03N 47°35' W 122°26'4 7.5
2015-Apr-28 22:33N 47°38' W 122°23'0 4.1
2015-Apr-28 22:29N 47°38' W 122°23'7 7.6
2015-Apr-28 21:33N 47°44' W 122°27'012.0
2015-Apr-28 21:33N 47°44' W 122°27'8 8.5
2015-Apr-28 20:34N 47°52' W 122°29'0 6.5
2015-Apr-28 20:33N 47°52' W 122°29'9 8.7
2015-Apr-28 19:33N 47°59' W 122°37'9 9.1
2015-Apr-28 18:33N 48°08' W 122°42'11 9.3
2015-Apr-28 17:26N 48°11' W 122°57'7 8.3
2015-Apr-28 16:32N 48°11' W 123°08'2 7.3
2015-Apr-28 16:15N 48°10' W 123°11'5 7.5
2015-Apr-28 15:34N 48°09' W 123°19'4 4.3
2015-Apr-28 14:34N 48°08' W 123°25'0 0.0
2015-Apr-28 13:34N 48°08' W 123°25'3 3.2
2015-Apr-28 12:34N 48°09' W 123°21'1010.0
2015-Apr-28 11:33N 48°13' W 123°06'9 9.1
2015-Apr-28 10:34N 48°12' W 122°53'9 8.5
2015-Apr-28 09:27N 48°08' W 122°40'7 7.7
2015-Apr-28 08:33N 48°01' W 122°37'5 7.4
2015-Apr-28 07:50N 47°57' W 122°32'2 7.8
2015-Apr-28 07:34N 47°56' W 122°29'4 8.2
2015-Apr-28 07:06N 47°52' W 122°28'5 8.4
2015-Apr-28 06:34N 47°48' W 122°26'0 8.3
2015-Apr-28 06:31N 47°47' W 122°26'3 8.2
2015-Apr-28 06:11N 47°45' W 122°26'5 8.2
2015-Apr-28 05:33N 47°39' W 122°27'8 8.0
2015-Apr-28 04:33N 47°31' W 122°29'0 7.1
2015-Apr-28 04:30N 47°31' W 122°29'8 8.4
2015-Apr-28 03:33N 47°23' W 122°32'8 8.5
2015-Apr-28 02:34N 47°15' W 122°34'8 8.1
2015-Apr-28 01:32N 47°11' W 122°44'9 7.2
2015-Apr-28 00:15N 47°06' W 122°56'2 1.4
2015-Apr-27 23:05N 47°04' W 122°55'5 0.2
2015-Apr-27 02:16N 47°09' W 122°54'5 7.1
2015-Apr-27 01:33N 47°10' W 122°46'8 7.9
2015-Apr-27 00:34N 47°13' W 122°36'6 6.4
2015-Apr-26 23:33N 47°19' W 122°33'7 7.2
2015-Apr-26 22:34N 47°26' W 122°31'0 7.2
2015-Apr-26 22:31N 47°27' W 122°31'7 7.7
2015-Apr-26 21:34N 47°33' W 122°27'1 8.3
2015-Apr-26 21:25N 47°34' W 122°26'4 4.9
2015-Apr-26 20:34N 47°38' W 122°23'0 0.1
2015-Apr-26 20:30N 47°38' W 122°23'0 0.0
2015-Apr-26 19:33N 47°38' W 122°23'0 0.0
2015-Apr-26 19:19N 47°38' W 122°23'0 0.0
2015-Apr-26 18:34N 47°38' W 122°23'0 0.0
2015-Apr-26 18:03N 47°38' W 122°23'0 0.0
2015-Apr-26 17:33N 47°38' W 122°23'0 0.0
2015-Apr-26 17:32N 47°38' W 122°23'0 0.0
2015-Apr-26 16:34N 47°38' W 122°23'0 0.0
2015-Apr-26 15:33N 47°38' W 122°23'0 0.0
2015-Apr-26 15:18N 47°38' W 122°23'0 0.0
2015-Apr-26 14:33N 47°38' W 122°23'0 2.0
2015-Apr-26 14:33N 47°38' W 122°23'0 0.0
2015-Apr-26 13:33N 47°38' W 122°23'0 1.7
2015-Apr-26 13:33N 47°38' W 122°23'0 0.0
2015-Apr-26 12:34N 47°38' W 122°23'0 0.0
2015-Apr-26 12:33N 47°38' W 122°23'0 0.0
2015-Apr-26 11:34N 47°38' W 122°23'0 0.0
2015-Apr-26 10:55N 47°38' W 122°23'0 0.0
2015-Apr-26 10:33N 47°38' W 122°23'0 0.0
2015-Apr-26 10:30N 47°38' W 122°23'0 0.0
2015-Apr-26 09:34N 47°38' W 122°23'0 0.0
2015-Apr-26 09:20N 47°38' W 122°23'0 0.0
2015-Apr-26 08:34N 47°38' W 122°23'0 0.0
2015-Apr-26 08:30N 47°38' W 122°23'0 0.0
2015-Apr-26 07:33N 47°38' W 122°23'0 0.0
2015-Apr-26 07:30N 47°38' W 122°23'0 0.0
2015-Apr-26 06:34N 47°38' W 122°23'0 0.0
2015-Apr-26 05:33N 47°38' W 122°23'0 0.0
2015-Apr-26 05:27N 47°38' W 122°23'0 0.0
2015-Apr-26 04:34N 47°38' W 122°23'0 0.0
2015-Apr-26 04:31N 47°38' W 122°23'0 0.0
2015-Apr-26 03:34N 47°38' W 122°23'0 0.0
2015-Apr-26 03:31N 47°38' W 122°23'0 0.0
2015-Apr-26 02:34N 47°38' W 122°23'0 0.0
2015-Apr-26 02:31N 47°38' W 122°23'0 0.0
2015-Apr-26 01:34N 47°38' W 122°23'0 0.0
2015-Apr-26 01:31N 47°38' W 122°23'0 0.0
2015-Apr-26 00:34N 47°38' W 122°23'0 0.0
2015-Apr-26 00:30N 47°38' W 122°23'0 0.0
2015-Apr-25 23:34N 47°38' W 122°23'0 0.0
2015-Apr-25 23:30N 47°38' W 122°23'0 0.0
2015-Apr-25 22:34N 47°38' W 122°23'0 0.0
2015-Apr-25 22:30N 47°38' W 122°23'0 0.0
2015-Apr-25 21:33N 47°38' W 122°23'0 0.0
2015-Apr-25 20:33N 47°38' W 122°23'0 0.0
2015-Apr-25 19:33N 47°38' W 122°23'0 0.0
2015-Apr-25 18:34N 47°38' W 122°23'0 0.0
2015-Apr-25 17:34N 47°38' W 122°23'0 0.0
2015-Apr-25 16:34N 47°38' W 122°23'0 0.0
2015-Apr-25 15:34N 47°38' W 122°23'0 0.0
2015-Apr-25 14:33N 47°38' W 122°23'0 0.0
2015-Apr-25 13:34N 47°38' W 122°23'0 0.0
2015-Apr-25 12:34N 47°38' W 122°23'0 0.0
2015-Apr-25 11:34N 47°38' W 122°23'0 0.0
2015-Apr-25 10:34N 47°38' W 122°23'0 0.0
2015-Apr-25 09:34N 47°38' W 122°23'0 0.0
2015-Apr-25 08:33N 47°38' W 122°23'0 0.0
2015-Apr-25 07:34N 47°38' W 122°23'0 0.0
2015-Apr-25 06:34N 47°38' W 122°23'0 0.0
2015-Apr-25 05:33N 47°38' W 122°23'0 0.0
2015-Apr-25 04:34N 47°38' W 122°23'0 0.0
2015-Apr-25 03:33N 47°38' W 122°23'0 0.0
2015-Apr-25 02:33N 47°38' W 122°23'0 0.0
2015-Apr-25 01:33N 47°38' W 122°23'0 0.0
2015-Apr-25 00:33N 47°38' W 122°23'0 0.0
2015-Apr-24 23:34N 47°38' W 122°23'0 0.0
2015-Apr-24 22:33N 47°38' W 122°23'0 0.0
2015-Apr-24 21:34N 47°38' W 122°23'0 0.0
2015-Apr-24 20:33N 47°38' W 122°23'0 0.0
2015-Apr-24 19:33N 47°38' W 122°23'0 0.0
2015-Apr-24 18:34N 47°38' W 122°23'0 0.0
2015-Apr-24 17:33N 47°38' W 122°23'0 0.0
2015-Apr-24 16:33N 47°38' W 122°23'0 0.0
2015-Apr-24 15:34N 47°38' W 122°23'0 0.0
2015-Apr-24 14:34N 47°38' W 122°23'0 0.0
2015-Apr-24 13:34N 47°38' W 122°23'0 0.0
2015-Apr-24 12:33N 47°38' W 122°23'0 0.0
2015-Apr-24 11:34N 47°38' W 122°23'0 0.0
2015-Apr-24 10:34N 47°38' W 122°23'0 0.0
2015-Apr-24 09:34N 47°38' W 122°23'0 0.0
2015-Apr-24 08:33N 47°38' W 122°23'0 0.0
2015-Apr-24 07:34N 47°38' W 122°23'0 0.0
2015-Apr-24 06:34N 47°38' W 122°23'0 0.0
2015-Apr-24 05:33N 47°38' W 122°23'0 0.0
2015-Apr-24 04:33N 47°38' W 122°23'0 0.0
2015-Apr-24 03:33N 47°38' W 122°23'0 0.0
2015-Apr-24 02:34N 47°38' W 122°23'0 0.0
2015-Apr-24 01:33N 47°38' W 122°23'0 0.0
2015-Apr-24 00:34N 47°38' W 122°23'0 0.0
2015-Apr-23 23:34N 47°38' W 122°23'0 0.0
2015-Apr-23 22:34N 47°38' W 122°23'0 0.0
2015-Apr-23 21:34N 47°38' W 122°23'7 7.2
2015-Apr-23 20:34N 47°34' W 122°32'0 0.1
2015-Apr-23 19:34N 47°34' W 122°32'0 0.0
2015-Apr-23 18:34N 47°34' W 122°32'0 0.0
2015-Apr-23 17:34N 47°34' W 122°32'0 0.0
2015-Apr-23 16:34N 47°34' W 122°32'0 0.0
2015-Apr-23 15:34N 47°34' W 122°32'2 2.2
2015-Apr-23 14:33N 47°35' W 122°29'5 5.4
2015-Apr-23 13:33N 47°38' W 122°23'0 0.0
2015-Apr-23 12:33N 47°38' W 122°23'0 0.0
2015-Apr-23 11:34N 47°38' W 122°23'  
Track history (hours):
 
Tides and Currents Weather Stations Pressure Air Temp Water Temp Dewpoint Dewpoint Depression Visibility Wind Speed Wind Dir Waves Ship Positions

F/V Harvestor

Owner: F/V HARVESTOR INC., EDMONDS, WA. More information available from US FCC via Universal Licensing System and Coast Guard Vessel Documentation Center.

Last reported at 2015-May-03 11:34 UTC. Time now 2015-May-03 11:50 UTC.
Position N 47°38' W 122°23'.

Length 40 m.

Type: Fishing. MMSI: 367083650.

Date/timePositionNaut miles runAvg speedWind from/ knotsBaromVisibWave heightAir tempDewpointWater temp
2015-May-03 11:34N 47°38' W 122°23'0 0.0
2015-May-03 11:33N 47°38' W 122°23'0 0.0
2015-May-03 10:34N 47°38' W 122°23'0 0.0
2015-May-03 10:32N 47°38' W 122°23'0 0.0
2015-May-03 09:34N 47°38' W 122°23'0 0.0
2015-May-03 09:32N 47°38' W 122°23'0 0.0
2015-May-03 08:34N 47°38' W 122°23'0 0.0
2015-May-03 08:31N 47°38' W 122°23'0 0.0
2015-May-03 07:34N 47°38' W 122°23'0 0.0
2015-May-03 07:31N 47°38' W 122°23'0 0.0
2015-May-03 06:51N 47°38' W 122°23'0 0.0
2015-May-03 06:34N 47°38' W 122°23'0 0.0
2015-May-03 05:34N 47°38' W 122°23'0 0.0
2015-May-03 05:30N 47°38' W 122°23'0 0.0
2015-May-03 04:33N 47°38' W 122°23'0 0.0
2015-May-03 04:30N 47°38' W 122°23'0 0.0
2015-May-03 03:33N 47°38' W 122°23'0 0.0
2015-May-03 03:30N 47°38' W 122°23'0 0.0
2015-May-03 02:34N 47°38' W 122°23'0 0.7
2015-May-03 02:30N 47°38' W 122°23'0 0.0
2015-May-03 01:34N 47°38' W 122°23'0 0.7
2015-May-03 01:30N 47°38' W 122°23'0 0.0
2015-May-03 00:33N 47°38' W 122°23'0 0.0
2015-May-03 00:30N 47°38' W 122°23'0 0.0
2015-May-02 23:34N 47°38' W 122°23'0 0.6
2015-May-02 23:29N 47°38' W 122°23'3 3.7
2015-May-02 22:34N 47°39' W 122°27'1 9.0
2015-May-02 22:29N 47°40' W 122°28'910.1
2015-May-02 21:33N 47°49' W 122°28'8 9.2
2015-May-02 20:40N 47°57' W 122°33'110.6
2015-May-02 20:33N 47°57' W 122°35'6 9.6
2015-May-02 19:55N 48°03' W 122°39'4 9.9
2015-May-02 19:32N 48°06' W 122°40'10 9.9
2015-May-02 18:29N 48°11' W 122°55'4 9.0
2015-May-02 18:03N 48°11' W 123°00'4 9.2
2015-May-02 17:34N 48°11' W 123°07'7 7.3
2015-May-02 16:33N 48°09' W 123°18'5 5.0
2015-May-02 15:33N 48°08' W 123°25'0 0.0
2015-May-02 15:07N 48°08' W 123°25'0 0.0
2015-May-02 14:33N 48°08' W 123°25'8 7.9
2015-May-02 13:34N 48°10' W 123°14'9 8.9
2015-May-02 12:33N 48°12' W 123°01'9 8.9
2015-May-02 11:32N 48°12' W 122°47'1 7.7
2015-May-02 11:25N 48°11' W 122°46'6 6.9
2015-May-02 10:32N 48°07' W 122°39'5 7.2
2015-May-02 09:54N 48°03' W 122°38'2 6.5
2015-May-02 09:34N 48°01' W 122°36'2 6.7
2015-May-02 09:19N 47°59' W 122°35'5 6.8
2015-May-02 08:34N 47°56' W 122°29'1 7.3
2015-May-02 08:24N 47°55' W 122°28'6 7.4
2015-May-02 07:34N 47°49' W 122°26'3 7.7
2015-May-02 07:12N 47°46' W 122°25'5 7.9
2015-May-02 06:33N 47°41' W 122°27'3 7.7
2015-May-02 06:10N 47°38' W 122°27'5 7.9
2015-May-02 05:34N 47°33' W 122°27'1 8.0
2015-May-02 05:29N 47°33' W 122°28'8 8.9
2015-May-02 04:34N 47°25' W 122°32'9 9.4
2015-May-02 03:34N 47°15' W 122°34'9 8.5
2015-May-02 02:28N 47°10' W 122°45'7 7.3
2015-May-02 01:28N 47°08' W 122°55'4 0.8
2015-May-01 21:09N 47°04' W 122°55'0 0.0
2015-May-01 13:20N 47°04' W 122°55'0 0.0
2015-May-01 12:23N 47°04' W 122°55'0 0.0
2015-May-01 08:33N 47°04' W 122°55'5 0.9
2015-May-01 03:22N 47°09' W 122°54'7 7.3
2015-May-01 02:23N 47°11' W 122°44'6 7.8
2015-May-01 01:34N 47°14' W 122°35'7 7.0
2015-May-01 00:33N 47°20' W 122°33'6 8.2
2015-Apr-30 23:51N 47°26' W 122°32'3 8.7
2015-Apr-30 23:34N 47°29' W 122°31'0 8.4
2015-Apr-30 23:31N 47°29' W 122°30'8 8.6
2015-Apr-30 22:34N 47°37' W 122°28'0 8.9
2015-Apr-30 22:31N 47°37' W 122°29'8 8.4
2015-Apr-30 21:34N 47°45' W 122°28'0 8.5
2015-Apr-30 21:30N 47°46' W 122°28'5 4.9
2015-Apr-30 20:34N 47°50' W 122°29'1 8.7
2015-Apr-30 20:29N 47°51' W 122°29'8 8.8
2015-Apr-30 19:33N 47°58' W 122°35'10 9.0
2015-Apr-30 18:26N 48°07' W 122°42'10 9.3
2015-Apr-30 17:22N 48°11' W 122°55'7 8.8
2015-Apr-30 16:34N 48°12' W 123°06'5 8.3
2015-Apr-30 15:56N 48°10' W 123°13'3 7.1
2015-Apr-30 15:34N 48°09' W 123°17'5 5.2
2015-Apr-30 14:34N 48°08' W 123°25'0 0.0
2015-Apr-30 13:30N 48°08' W 123°25'7 7.0
2015-Apr-30 12:33N 48°10' W 123°16'9 9.1
2015-Apr-30 11:34N 48°13' W 123°02'9 8.5
2015-Apr-30 10:32N 48°12' W 122°49'016.2
2015-Apr-30 10:32N 48°12' W 122°49'7 7.1
2015-Apr-30 09:29N 48°08' W 122°40'6 6.8
2015-Apr-30 08:32N 48°02' W 122°37'5 7.1
2015-Apr-30 07:46N 47°57' W 122°32'1 6.8
2015-Apr-30 07:33N 47°56' W 122°30'4 7.8
2015-Apr-30 07:06N 47°53' W 122°28'4 8.2
2015-Apr-30 06:33N 47°49' W 122°26'0 8.6
2015-Apr-30 06:31N 47°48' W 122°26'4 8.2
2015-Apr-30 06:01N 47°44' W 122°26'4 8.6
2015-Apr-30 05:33N 47°40' W 122°27'9 8.5
2015-Apr-30 04:34N 47°32' W 122°28'0 9.0
2015-Apr-30 04:30N 47°32' W 122°29'9 9.1
2015-Apr-30 03:33N 47°23' W 122°32'10 9.6
2015-Apr-30 02:34N 47°14' W 122°35'9 8.4
2015-Apr-30 01:31N 47°10' W 122°47'8 6.9
2015-Apr-30 00:23N 47°05' W 122°55'1 0.2
2015-Apr-29 20:07N 47°04' W 122°55'0 0.0
2015-Apr-29 17:30N 47°04' W 122°55'8 0.6
2015-Apr-29 03:28N 47°11' W 122°49'7 7.1
2015-Apr-29 02:31N 47°11' W 122°39'7 7.2
2015-Apr-29 01:33N 47°17' W 122°33'7 6.9
2015-Apr-29 00:34N 47°23' W 122°32'4 7.8
2015-Apr-29 00:00N 47°28' W 122°31'4 8.1
2015-Apr-28 23:34N 47°31' W 122°29'4 8.3
2015-Apr-28 23:03N 47°35' W 122°26'4 7.5
2015-Apr-28 22:33N 47°38' W 122°23'0 4.1
2015-Apr-28 22:29N 47°38' W 122°23'7 7.6
2015-Apr-28 21:33N 47°44' W 122°27'012.0
2015-Apr-28 21:33N 47°44' W 122°27'8 8.5
2015-Apr-28 20:34N 47°52' W 122°29'0 6.5
2015-Apr-28 20:33N 47°52' W 122°29'9 8.7
2015-Apr-28 19:33N 47°59' W 122°37'9 9.1
2015-Apr-28 18:33N 48°08' W 122°42'11 9.3
2015-Apr-28 17:26N 48°11' W 122°57'7 8.3
2015-Apr-28 16:32N 48°11' W 123°08'2 7.3
2015-Apr-28 16:15N 48°10' W 123°11'5 7.5
2015-Apr-28 15:34N 48°09' W 123°19'4 4.3
2015-Apr-28 14:34N 48°08' W 123°25'0 0.0
2015-Apr-28 13:34N 48°08' W 123°25'3 3.2
2015-Apr-28 12:34N 48°09' W 123°21'1010.0
2015-Apr-28 11:33N 48°13' W 123°06'9 9.1
2015-Apr-28 10:34N 48°12' W 122°53'9 8.5
2015-Apr-28 09:27N 48°08' W 122°40'7 7.7
2015-Apr-28 08:33N 48°01' W 122°37'5 7.4
2015-Apr-28 07:50N 47°57' W 122°32'2 7.8
2015-Apr-28 07:34N 47°56' W 122°29'4 8.2
2015-Apr-28 07:06N 47°52' W 122°28'5 8.4
2015-Apr-28 06:34N 47°48' W 122°26'0 8.3
2015-Apr-28 06:31N 47°47' W 122°26'3 8.2
2015-Apr-28 06:11N 47°45' W 122°26'5 8.2
2015-Apr-28 05:33N 47°39' W 122°27'8 8.0
2015-Apr-28 04:33N 47°31' W 122°29'0 7.1
2015-Apr-28 04:30N 47°31' W 122°29'8 8.4
2015-Apr-28 03:33N 47°23' W 122°32'8 8.5
2015-Apr-28 02:34N 47°15' W 122°34'8 8.1
2015-Apr-28 01:32N 47°11' W 122°44'9 7.2
2015-Apr-28 00:15N 47°06' W 122°56'2 1.4
2015-Apr-27 23:05N 47°04' W 122°55'5 0.2
2015-Apr-27 02:16N 47°09' W 122°54'5 7.1
2015-Apr-27 01:33N 47°10' W 122°46'8 7.9
2015-Apr-27 00:34N 47°13' W 122°36'6 6.4
2015-Apr-26 23:33N 47°19' W 122°33'7 7.2
2015-Apr-26 22:34N 47°26' W 122°31'0 7.2
2015-Apr-26 22:31N 47°27' W 122°31'7 7.7
2015-Apr-26 21:34N 47°33' W 122°27'1 8.3
2015-Apr-26 21:25N 47°34' W 122°26'4 4.9
2015-Apr-26 20:34N 47°38' W 122°23'0 0.1
2015-Apr-26 20:30N 47°38' W 122°23'0 0.0
2015-Apr-26 19:33N 47°38' W 122°23'0 0.0
2015-Apr-26 19:19N 47°38' W 122°23'0 0.0
2015-Apr-26 18:34N 47°38' W 122°23'0 0.0
2015-Apr-26 18:03N 47°38' W 122°23'0 0.0
2015-Apr-26 17:33N 47°38' W 122°23'0 0.0
2015-Apr-26 17:32N 47°38' W 122°23'0 0.0
2015-Apr-26 16:34N 47°38' W 122°23'0 0.0
2015-Apr-26 15:33N 47°38' W 122°23'0 0.0
2015-Apr-26 15:18N 47°38' W 122°23'0 0.0
2015-Apr-26 14:33N 47°38' W 122°23'0 2.0
2015-Apr-26 14:33N 47°38' W 122°23'0 0.0
2015-Apr-26 13:33N 47°38' W 122°23'0 1.7
2015-Apr-26 13:33N 47°38' W 122°23'0 0.0
2015-Apr-26 12:34N 47°38' W 122°23'0 0.0
2015-Apr-26 12:33N 47°38' W 122°23'0 0.0
2015-Apr-26 11:34N 47°38' W 122°23'0 0.0
2015-Apr-26 10:55N 47°38' W 122°23'0 0.0
2015-Apr-26 10:33N 47°38' W 122°23'0 0.0
2015-Apr-26 10:30N 47°38' W 122°23'0 0.0
2015-Apr-26 09:34N 47°38' W 122°23'0 0.0
2015-Apr-26 09:20N 47°38' W 122°23'0 0.0
2015-Apr-26 08:34N 47°38' W 122°23'0 0.0
2015-Apr-26 08:30N 47°38' W 122°23'0 0.0
2015-Apr-26 07:33N 47°38' W 122°23'0 0.0
2015-Apr-26 07:30N 47°38' W 122°23'0 0.0
2015-Apr-26 06:34N 47°38' W 122°23'0 0.0
2015-Apr-26 05:33N 47°38' W 122°23'0 0.0
2015-Apr-26 05:27N 47°38' W 122°23'0 0.0
2015-Apr-26 04:34N 47°38' W 122°23'0 0.0
2015-Apr-26 04:31N 47°38' W 122°23'0 0.0
2015-Apr-26 03:34N 47°38' W 122°23'0 0.0
2015-Apr-26 03:31N 47°38' W 122°23'0 0.0
2015-Apr-26 02:34N 47°38' W 122°23'0 0.0
2015-Apr-26 02:31N 47°38' W 122°23'0 0.0
2015-Apr-26 01:34N 47°38' W 122°23'0 0.0
2015-Apr-26 01:31N 47°38' W 122°23'0 0.0
2015-Apr-26 00:34N 47°38' W 122°23'0 0.0
2015-Apr-26 00:30N 47°38' W 122°23'0 0.0
2015-Apr-25 23:34N 47°38' W 122°23'0 0.0
2015-Apr-25 23:30N 47°38' W 122°23'0 0.0
2015-Apr-25 22:34N 47°38' W 122°23'0 0.0
2015-Apr-25 22:30N 47°38' W 122°23'0 0.0
2015-Apr-25 21:33N 47°38' W 122°23'0 0.0
2015-Apr-25 20:33N 47°38' W 122°23'0 0.0
2015-Apr-25 19:33N 47°38' W 122°23'0 0.0
2015-Apr-25 18:34N 47°38' W 122°23'0 0.0
2015-Apr-25 17:34N 47°38' W 122°23'0 0.0
2015-Apr-25 16:34N 47°38' W 122°23'0 0.0
2015-Apr-25 15:34N 47°38' W 122°23'0 0.0
2015-Apr-25 14:33N 47°38' W 122°23'0 0.0
2015-Apr-25 13:34N 47°38' W 122°23'0 0.0
2015-Apr-25 12:34N 47°38' W 122°23'0 0.0
2015-Apr-25 11:34N 47°38' W 122°23'0 0.0
2015-Apr-25 10:34N 47°38' W 122°23'0 0.0
2015-Apr-25 09:34N 47°38' W 122°23'0 0.0
2015-Apr-25 08:33N 47°38' W 122°23'0 0.0
2015-Apr-25 07:34N 47°38' W 122°23'0 0.0
2015-Apr-25 06:34N 47°38' W 122°23'0 0.0
2015-Apr-25 05:33N 47°38' W 122°23'0 0.0
2015-Apr-25 04:34N 47°38' W 122°23'0 0.0
2015-Apr-25 03:33N 47°38' W 122°23'0 0.0
2015-Apr-25 02:33N 47°38' W 122°23'0 0.0
2015-Apr-25 01:33N 47°38' W 122°23'0 0.0
2015-Apr-25 00:33N 47°38' W 122°23'0 0.0
2015-Apr-24 23:34N 47°38' W 122°23'0 0.0
2015-Apr-24 22:33N 47°38' W 122°23'0 0.0
2015-Apr-24 21:34N 47°38' W 122°23'0 0.0
2015-Apr-24 20:33N 47°38' W 122°23'0 0.0
2015-Apr-24 19:33N 47°38' W 122°23'0 0.0
2015-Apr-24 18:34N 47°38' W 122°23'0 0.0
2015-Apr-24 17:33N 47°38' W 122°23'0 0.0
2015-Apr-24 16:33N 47°38' W 122°23'0 0.0
2015-Apr-24 15:34N 47°38' W 122°23'0 0.0
2015-Apr-24 14:34N 47°38' W 122°23'0 0.0
2015-Apr-24 13:34N 47°38' W 122°23'0 0.0
2015-Apr-24 12:33N 47°38' W 122°23'0 0.0
2015-Apr-24 11:34N 47°38' W 122°23'0 0.0
2015-Apr-24 10:34N 47°38' W 122°23'0 0.0
2015-Apr-24 09:34N 47°38' W 122°23'0 0.0
2015-Apr-24 08:33N 47°38' W 122°23'0 0.0
2015-Apr-24 07:34N 47°38' W 122°23'0 0.0
2015-Apr-24 06:34N 47°38' W 122°23'0 0.0
2015-Apr-24 05:33N 47°38' W 122°23'0 0.0
2015-Apr-24 04:33N 47°38' W 122°23'0 0.0
2015-Apr-24 03:33N 47°38' W 122°23'0 0.0
2015-Apr-24 02:34N 47°38' W 122°23'0 0.0
2015-Apr-24 01:33N 47°38' W 122°23'0 0.0
2015-Apr-24 00:34N 47°38' W 122°23'0 0.0
2015-Apr-23 23:34N 47°38' W 122°23'0 0.0
2015-Apr-23 22:34N 47°38' W 122°23'0 0.0
2015-Apr-23 21:34N 47°38' W 122°23'7 7.2
2015-Apr-23 20:34N 47°34' W 122°32'0 0.1
2015-Apr-23 19:34N 47°34' W 122°32'0 0.0
2015-Apr-23 18:34N 47°34' W 122°32'0 0.0
2015-Apr-23 17:34N 47°34' W 122°32'0 0.0
2015-Apr-23 16:34N 47°34' W 122°32'0 0.0
2015-Apr-23 15:34N 47°34' W 122°32'2 2.2
2015-Apr-23 14:33N 47°35' W 122°29'5 5.4
2015-Apr-23 13:33N 47°38' W 122°23'0 0.0
2015-Apr-23 12:33N 47°38' W 122°23'0 0.0
2015-Apr-23 11:34N 47°38' W 122°23'  

Dump ship's entire track history